Time;durP1;ratioP1;P1;durP2;ratioP2;P2;SDS_P1;SDS_P2;PMS_P1;PMS_P2;Temp;Humidity;BMP_temperature;BMP_pressure;BME280_temperature;BME280_humidity;BME280_pressure;Samples;Min_cycle;Max_cycle;Signal;HPM_P1;HPM_P2
2021/05/26 00:00:54;;;;;;;1.73;1.10;;;10.50;99.20;;;;;;5087835;28;20207;-73
2021/05/26 00:03:21;;;;;;;3.45;1.20;;;10.40;99.40;;;;;;5087393;28;20246;-73
2021/05/26 00:05:48;;;;;;;2.35;1.30;;;10.40;99.50;;;;;;5108347;22;20236;-73
2021/05/26 00:08:24;;;;;;;2.35;1.15;;;10.50;99.50;;;;;;5080308;28;21120;-73
2021/05/26 00:10:50;;;;;;;2.05;1.10;;;10.50;99.70;;;;;;5087225;28;20203;-72
2021/05/26 00:13:16;;;;;;;1.50;1.10;;;10.50;99.80;;;;;;5087550;28;20264;-72
2021/05/26 00:15:42;;;;;;;1.40;1.30;;;10.50;99.90;;;;;;5087312;28;20227;-72
2021/05/26 00:18:08;;;;;;;2.55;1.20;;;10.60;99.90;;;;;;5086914;28;20211;-69
2021/05/26 00:20:35;;;;;;;2.55;1.23;;;10.60;99.90;;;;;;5087137;28;20264;-72
2021/05/26 00:23:01;;;;;;;2.65;1.20;;;10.50;99.90;;;;;;5076292;28;20298;-72
2021/05/26 00:25:28;;;;;;;1.70;1.30;;;10.60;99.90;;;;;;5067119;28;20233;-72
2021/05/26 00:27:58;;;;;;;2.60;1.52;;;10.50;99.90;;;;;;5069516;28;20216;-72
2021/05/26 00:30:26;;;;;;;5.18;1.25;;;10.60;99.90;;;;;;5067727;28;20311;-72
2021/05/26 00:32:52;;;;;;;1.50;1.20;;;10.60;99.90;;;;;;5072569;28;20632;-72
2021/05/26 00:35:19;;;;;;;1.13;1.02;;;10.60;99.90;;;;;;5068746;28;20224;-72
2021/05/26 00:37:45;;;;;;;1.90;1.15;;;10.60;99.90;;;;;;5071125;28;20614;-71
2021/05/26 00:40:12;;;;;;;1.90;1.20;;;10.60;99.90;;;;;;5070368;28;20201;-71
2021/05/26 00:42:39;;;;;;;3.50;1.20;;;10.70;99.90;;;;;;5071836;28;20282;-72
2021/05/26 00:45:06;;;;;;;4.35;1.50;;;10.70;99.90;;;;;;5072145;28;20220;-72
2021/05/26 00:47:41;;;;;;;3.10;1.23;;;10.70;99.90;;;;;;5071773;28;20219;-74
2021/05/26 00:50:09;;;;;;;4.05;1.40;;;10.70;99.90;;;;;;5071174;28;20203;-74
2021/05/26 00:52:36;;;;;;;2.03;1.20;;;10.80;99.90;;;;;;5072355;28;20225;-73
2021/05/26 00:55:03;;;;;;;2.85;1.33;;;10.80;99.90;;;;;;5072060;28;20220;-73
2021/05/26 00:57:30;;;;;;;1.45;1.10;;;10.80;99.90;;;;;;5071178;28;20219;-73
2021/05/26 00:59:57;;;;;;;1.52;1.10;;;10.80;99.90;;;;;;5070835;28;20223;-74
2021/05/26 01:02:23;;;;;;;4.60;1.63;;;10.70;99.90;;;;;;5071493;28;20730;-74
2021/05/26 01:04:49;;;;;;;1.80;1.20;;;10.80;99.90;;;;;;5071461;28;20232;-75
2021/05/26 01:07:16;;;;;;;1.75;1.02;;;10.70;99.90;;;;;;5071569;28;20203;-74
2021/05/26 01:09:42;;;;;;;3.03;1.30;;;10.80;99.90;;;;;;5070241;28;20212;-74
2021/05/26 01:12:09;;;;;;;2.13;1.20;;;10.80;99.90;;;;;;5071782;28;20211;-73
2021/05/26 01:14:35;;;;;;;2.30;1.40;;;10.80;99.90;;;;;;5071586;28;20228;-73
2021/05/26 01:17:02;;;;;;;2.65;1.20;;;10.70;99.90;;;;;;5072092;28;20262;-74
2021/05/26 01:19:29;;;;;;;2.15;1.27;;;10.70;99.90;;;;;;5071075;28;20215;-75
2021/05/26 01:21:56;;;;;;;2.08;1.30;;;10.70;99.90;;;;;;5070829;28;20232;-75
2021/05/26 01:24:22;;;;;;;3.90;1.55;;;10.60;99.90;;;;;;5071445;28;20225;-74
2021/05/26 01:26:48;;;;;;;2.92;1.65;;;10.50;99.90;;;;;;5071411;28;20200;-74
2021/05/26 01:29:15;;;;;;;2.75;1.20;;;10.40;99.90;;;;;;5071322;28;20216;-74
2021/05/26 01:31:42;;;;;;;3.35;1.52;;;10.30;99.90;;;;;;5070427;28;20206;-74
2021/05/26 01:34:08;;;;;;;2.00;1.35;;;10.30;99.90;;;;;;5070961;28;20221;-75
2021/05/26 01:36:35;;;;;;;1.42;1.33;;;10.20;99.90;;;;;;5071169;28;20660;-74
2021/05/26 01:39:05;;;;;;;3.25;2.30;;;10.20;99.90;;;;;;5070916;28;20634;-75
2021/05/26 01:41:31;;;;;;;2.58;1.30;;;10.10;99.90;;;;;;5070001;28;20279;-74
2021/05/26 01:43:58;;;;;;;1.92;1.17;;;10.10;99.90;;;;;;5070019;28;20200;-73
2021/05/26 01:46:24;;;;;;;2.40;1.27;;;10.10;99.90;;;;;;5070725;28;20282;-74
2021/05/26 01:48:52;;;;;;;3.35;1.52;;;10.10;99.90;;;;;;5070729;28;20200;-74
2021/05/26 01:51:19;;;;;;;1.52;1.20;;;10.10;99.90;;;;;;5069693;28;20721;-74
2021/05/26 01:53:46;;;;;;;2.45;1.38;;;10.10;99.90;;;;;;5071106;28;20212;-74
2021/05/26 01:56:18;;;;;;;1.92;1.15;;;10.10;99.90;;;;;;5070524;28;20257;-74
2021/05/26 01:58:48;;;;;;;1.90;1.50;;;10.00;99.90;;;;;;5070933;28;20200;-75
2021/05/26 02:01:16;;;;;;;2.88;1.33;;;10.00;99.90;;;;;;5070073;28;20250;-74
2021/05/26 02:03:43;;;;;;;2.15;1.40;;;10.00;99.90;;;;;;5074118;28;20203;-75
2021/05/26 02:06:10;;;;;;;1.98;1.40;;;10.00;99.90;;;;;;5070976;28;20208;-74
2021/05/26 02:08:37;;;;;;;4.38;2.17;;;9.90;99.90;;;;;;5070191;28;20204;-75
2021/05/26 02:13:48;;;;;;;2.78;1.20;;;9.90;99.90;;;;;;5070780;28;20196;-74
2021/05/26 02:16:14;;;;;;;3.78;1.50;;;9.80;99.90;;;;;;5070494;28;20250;-74
2021/05/26 02:18:40;;;;;;;1.40;1.10;;;9.80;99.90;;;;;;5070247;28;20212;-74
2021/05/26 02:21:07;;;;;;;4.03;1.58;;;9.70;99.90;;;;;;5069078;28;20208;-76
2021/05/26 02:23:33;;;;;;;2.45;1.20;;;9.70;99.90;;;;;;5070347;28;20247;-73
2021/05/26 02:26:00;;;;;;;2.60;1.23;;;9.60;99.90;;;;;;5070195;28;20229;-74
2021/05/26 02:28:26;;;;;;;3.10;1.38;;;9.60;99.90;;;;;;5069627;28;20230;-74
2021/05/26 02:30:53;;;;;;;4.13;1.50;;;9.60;99.90;;;;;;5069182;28;20233;-74
2021/05/26 02:33:21;;;;;;;2.20;1.40;;;9.70;99.90;;;;;;5069987;28;20192;-73
2021/05/26 02:35:47;;;;;;;2.78;1.73;;;9.70;99.90;;;;;;5070037;28;20255;-73
2021/05/26 02:38:13;;;;;;;1.52;1.20;;;9.70;99.90;;;;;;5069519;28;20582;-74
2021/05/26 02:40:39;;;;;;;4.20;1.27;;;9.70;99.90;;;;;;5068530;28;20216;-74
2021/05/26 02:43:06;;;;;;;3.30;1.42;;;9.60;99.90;;;;;;5069971;28;20641;-73
2021/05/26 02:45:32;;;;;;;1.33;1.20;;;9.60;99.90;;;;;;5070195;28;20231;-74
2021/05/26 02:48:00;;;;;;;2.83;1.50;;;9.50;99.90;;;;;;5069766;28;20205;-73
2021/05/26 02:50:27;;;;;;;2.83;1.25;;;9.50;99.90;;;;;;5068585;28;20204;-74
2021/05/26 02:52:53;;;;;;;2.95;1.33;;;9.50;99.90;;;;;;5070099;28;20218;-73
2021/05/26 02:55:21;;;;;;;1.40;1.00;;;9.50;99.90;;;;;;5069074;28;20305;-74
2021/05/26 02:57:48;;;;;;;2.60;1.65;;;9.50;99.90;;;;;;5069873;28;20208;-74
2021/05/26 03:00:17;;;;;;;2.63;1.30;;;9.50;99.90;;;;;;5068377;28;20212;-74
2021/05/26 03:02:43;;;;;;;2.03;1.33;;;9.50;99.90;;;;;;5069431;28;20215;-74
2021/05/26 03:05:12;;;;;;;2.13;1.23;;;9.50;99.90;;;;;;5068930;28;20228;-74
2021/05/26 03:07:39;;;;;;;1.23;1.13;;;9.40;99.90;;;;;;5069596;28;20671;-74
2021/05/26 03:10:07;;;;;;;3.72;1.80;;;9.50;99.90;;;;;;5068259;28;20196;-73
2021/05/26 03:12:33;;;;;;;1.73;1.40;;;9.50;99.90;;;;;;5069752;28;20686;-74
2021/05/26 03:14:59;;;;;;;3.25;1.45;;;9.40;99.90;;;;;;5069611;28;20220;-74
2021/05/26 03:17:28;;;;;;;2.38;1.30;;;9.50;99.90;;;;;;5068740;28;20494;-73
2021/05/26 03:19:55;;;;;;;2.45;1.30;;;9.50;99.90;;;;;;5068016;28;20208;-73
2021/05/26 03:22:23;;;;;;;1.98;1.35;;;9.50;99.90;;;;;;5068899;28;20710;-73
2021/05/26 03:24:49;;;;;;;2.92;1.45;;;9.50;99.90;;;;;;5069101;28;20241;-73
2021/05/26 03:27:16;;;;;;;3.28;1.55;;;9.50;99.90;;;;;;5069516;28;20200;-75
2021/05/26 03:29:42;;;;;;;2.75;1.50;;;9.50;99.90;;;;;;5067859;28;20214;-74
2021/05/26 03:32:08;;;;;;;3.90;2.08;;;9.50;99.90;;;;;;5069175;28;20640;-75
2021/05/26 03:34:35;;;;;;;2.95;1.73;;;9.40;99.90;;;;;;5068978;28;20311;-74
2021/05/26 03:37:01;;;;;;;2.38;1.60;;;9.40;99.90;;;;;;5068906;28;20196;-73
2021/05/26 03:39:28;;;;;;;2.13;1.50;;;9.40;99.90;;;;;;5066312;28;20212;-73
2021/05/26 03:41:54;;;;;;;3.08;1.40;;;9.40;99.90;;;;;;5065629;28;20261;-72
2021/05/26 03:44:21;;;;;;;2.42;1.52;;;9.50;99.90;;;;;;5068233;28;20228;-72
2021/05/26 03:46:47;;;;;;;4.38;1.65;;;9.50;99.90;;;;;;5069386;28;20636;-72
2021/05/26 03:49:13;;;;;;;1.75;1.30;;;9.50;99.90;;;;;;5068914;28;20204;-73
2021/05/26 03:51:39;;;;;;;3.83;1.73;;;9.40;99.90;;;;;;5068073;28;20233;-74
2021/05/26 03:54:06;;;;;;;5.15;1.70;;;9.50;99.90;;;;;;5068858;28;20231;-74
2021/05/26 03:56:33;;;;;;;3.40;1.50;;;9.40;99.90;;;;;;5068420;28;20668;-70
2021/05/26 03:59:00;;;;;;;2.28;1.65;;;9.40;99.90;;;;;;5066085;28;20197;-70
2021/05/26 04:01:26;;;;;;;2.50;1.30;;;9.40;99.90;;;;;;5064565;28;20200;-70
2021/05/26 04:03:52;;;;;;;2.10;1.58;;;9.40;99.90;;;;;;5066957;28;20204;-71
2021/05/26 04:06:19;;;;;;;2.67;1.60;;;9.40;99.90;;;;;;5069296;28;20231;-70
2021/05/26 04:08:45;;;;;;;2.30;1.40;;;9.40;99.90;;;;;;5072506;28;20257;-70
2021/05/26 04:11:11;;;;;;;2.85;1.73;;;9.50;99.90;;;;;;5071388;28;20196;-70
2021/05/26 04:13:38;;;;;;;1.58;1.40;;;9.50;99.90;;;;;;5077333;28;20253;-70
2021/05/26 04:16:05;;;;;;;2.78;1.50;;;9.60;99.90;;;;;;5072323;28;20222;-70
2021/05/26 04:18:31;;;;;;;1.95;1.55;;;9.50;99.90;;;;;;5072376;28;20602;-71
2021/05/26 04:20:57;;;;;;;2.00;1.20;;;9.50;99.90;;;;;;5071270;28;20279;-70
2021/05/26 04:23:24;;;;;;;2.67;1.88;;;9.50;99.90;;;;;;5070439;28;20228;-70
2021/05/26 04:25:51;;;;;;;3.83;1.75;;;9.40;99.90;;;;;;5072622;28;20254;-72
2021/05/26 04:28:19;;;;;;;3.33;1.50;;;9.40;99.90;;;;;;5071588;28;20699;-70
2021/05/26 04:30:46;;;;;;;4.90;1.90;;;9.40;99.90;;;;;;5070219;28;20196;-70
2021/05/26 04:33:12;;;;;;;2.92;1.50;;;9.40;99.90;;;;;;5071156;28;20197;-70
2021/05/26 04:35:39;;;;;;;2.42;1.73;;;9.50;99.90;;;;;;5071348;28;20297;-70
2021/05/26 04:38:05;;;;;;;2.42;1.63;;;9.40;99.90;;;;;;5071628;28;20205;-70
2021/05/26 04:40:31;;;;;;;4.90;2.05;;;9.30;99.90;;;;;;5070442;28;20250;-70
2021/05/26 04:42:57;;;;;;;2.10;1.50;;;9.30;99.90;;;;;;5072326;28;20220;-70
2021/05/26 04:45:24;;;;;;;2.10;1.60;;;9.40;99.90;;;;;;5071862;28;20224;-70
2021/05/26 04:47:51;;;;;;;4.32;1.95;;;9.40;99.90;;;;;;5071854;28;20574;-71
2021/05/26 04:50:17;;;;;;;3.53;1.60;;;9.50;99.90;;;;;;5070849;28;20632;-71
2021/05/26 04:52:43;;;;;;;2.25;1.60;;;9.50;99.90;;;;;;5071859;28;20737;-70
2021/05/26 04:55:10;;;;;;;2.85;1.70;;;9.40;99.90;;;;;;5071043;28;20228;-70
2021/05/26 04:57:37;;;;;;;7.15;1.60;;;9.40;99.90;;;;;;5071889;28;20223;-70
2021/05/26 05:00:05;;;;;;;2.45;1.60;;;9.40;99.90;;;;;;5070398;28;20200;-70
2021/05/26 05:02:31;;;;;;;4.53;1.85;;;9.40;99.90;;;;;;5071527;28;20334;-70
2021/05/26 05:04:58;;;;;;;1.70;1.50;;;9.30;99.90;;;;;;5071037;28;20262;-70
2021/05/26 05:07:25;;;;;;;3.30;2.15;;;9.30;99.90;;;;;;5071418;28;20208;-70
2021/05/26 05:09:51;;;;;;;2.10;1.45;;;9.30;99.90;;;;;;5070079;28;20219;-70
2021/05/26 05:12:17;;;;;;;2.40;1.83;;;9.30;99.90;;;;;;5071401;28;20209;-70
2021/05/26 05:14:43;;;;;;;3.75;1.60;;;9.30;99.90;;;;;;5071626;28;20711;-70
2021/05/26 05:17:09;;;;;;;2.38;1.50;;;9.30;99.90;;;;;;5071740;28;20205;-70
2021/05/26 05:19:36;;;;;;;7.32;2.05;;;9.30;99.90;;;;;;5070088;28;20230;-70
2021/05/26 05:22:03;;;;;;;2.30;1.52;;;9.30;99.90;;;;;;5070794;28;20310;-70
2021/05/26 05:24:29;;;;;;;1.75;1.30;;;9.30;99.90;;;;;;5071174;28;20270;-70
2021/05/26 05:26:55;;;;;;;2.90;1.58;;;9.30;99.90;;;;;;5071532;28;20580;-70
2021/05/26 05:29:21;;;;;;;5.03;1.92;;;9.30;99.90;;;;;;5070702;28;20227;-71
2021/05/26 05:31:48;;;;;;;3.17;1.77;;;9.20;99.90;;;;;;5070989;28;20581;-70
2021/05/26 05:34:14;;;;;;;3.90;1.98;;;9.30;99.90;;;;;;5070782;28;20228;-70
2021/05/26 05:36:40;;;;;;;3.47;2.03;;;9.30;99.90;;;;;;5070980;28;20597;-70
2021/05/26 05:39:07;;;;;;;3.03;1.58;;;9.30;99.90;;;;;;5070836;28;20204;-71
2021/05/26 05:41:33;;;;;;;2.30;1.50;;;9.20;99.90;;;;;;5069233;28;20211;-70
2021/05/26 05:44:00;;;;;;;3.10;2.05;;;9.30;99.90;;;;;;5070219;28;20238;-70
2021/05/26 05:46:26;;;;;;;2.00;1.60;;;9.30;99.90;;;;;;5071322;28;20864;-71
2021/05/26 05:48:52;;;;;;;4.05;1.70;;;9.30;99.90;;;;;;5070004;28;20219;-69
2021/05/26 05:51:18;;;;;;;2.33;1.30;;;9.30;99.90;;;;;;5069217;28;20675;-70
2021/05/26 05:53:44;;;;;;;2.90;1.88;;;9.30;99.90;;;;;;5070746;28;20266;-70
2021/05/26 05:56:11;;;;;;;2.97;2.00;;;9.30;99.90;;;;;;5069961;28;20204;-70
2021/05/26 05:58:38;;;;;;;2.70;1.83;;;9.20;99.90;;;;;;5070173;28;20211;-69
2021/05/26 06:01:04;;;;;;;2.53;1.40;;;9.30;99.90;;;;;;5068962;28;20204;-69
2021/05/26 06:03:30;;;;;;;3.70;2.00;;;9.30;99.90;;;;;;5069754;28;20235;-70
2021/05/26 06:05:56;;;;;;;1.60;1.50;;;9.30;99.90;;;;;;5070417;28;20228;-69
2021/05/26 06:08:22;;;;;;;1.83;1.60;;;9.30;99.90;;;;;;5069616;28;20212;-70
2021/05/26 06:10:49;;;;;;;5.32;1.80;;;9.30;99.90;;;;;;5069491;28;20215;-70
2021/05/26 06:13:16;;;;;;;4.95;1.80;;;9.30;99.90;;;;;;5070088;28;20205;-71
2021/05/26 06:15:42;;;;;;;2.80;1.95;;;9.40;99.90;;;;;;5069247;28;20221;-69
2021/05/26 06:18:08;;;;;;;4.95;1.63;;;9.40;99.90;;;;;;5068923;28;20582;-69
2021/05/26 06:20:35;;;;;;;4.03;1.50;;;9.40;99.90;;;;;;5068905;28;20201;-69
2021/05/26 06:23:01;;;;;;;2.03;1.30;;;9.50;99.90;;;;;;5068744;28;20221;-69
2021/05/26 06:25:27;;;;;;;4.55;2.38;;;9.50;99.90;;;;;;5069698;28;20243;-69
2021/05/26 06:27:54;;;;;;;5.03;2.05;;;9.50;99.90;;;;;;5069572;28;20292;-70
2021/05/26 06:30:21;;;;;;;4.72;2.13;;;9.50;99.90;;;;;;5068228;28;20279;-69
2021/05/26 06:32:48;;;;;;;3.78;2.28;;;9.50;99.90;;;;;;5069299;28;20200;-69
2021/05/26 06:35:14;;;;;;;2.30;1.80;;;9.50;99.90;;;;;;5068065;28;20273;-69
2021/05/26 06:37:41;;;;;;;4.90;2.00;;;9.60;99.90;;;;;;5069123;28;20196;-69
2021/05/26 06:40:07;;;;;;;2.38;1.60;;;9.70;99.90;;;;;;5068814;28;20204;-70
2021/05/26 06:42:34;;;;;;;1.52;1.42;;;9.60;99.90;;;;;;5069580;28;20310;-70
2021/05/26 06:45:00;;;;;;;2.83;1.90;;;9.70;99.90;;;;;;5069614;28;20228;-70
2021/05/26 06:47:27;;;;;;;2.30;1.70;;;9.70;99.90;;;;;;5069355;28;20216;-70
2021/05/26 06:49:54;;;;;;;3.08;1.77;;;9.70;99.90;;;;;;5068087;28;20200;-70
2021/05/26 06:52:20;;;;;;;2.45;1.73;;;9.70;99.90;;;;;;5069266;28;20197;-70
2021/05/26 06:54:46;;;;;;;5.25;3.25;;;9.70;99.90;;;;;;5069511;28;20745;-70
2021/05/26 06:57:12;;;;;;;4.15;2.10;;;9.80;99.90;;;;;;5068871;28;20204;-70
2021/05/26 06:59:38;;;;;;;4.97;1.70;;;9.90;99.90;;;;;;5068098;28;20215;-69
2021/05/26 07:02:04;;;;;;;4.40;1.70;;;9.90;99.90;;;;;;5069650;28;20695;-70
2021/05/26 07:04:31;;;;;;;3.17;1.80;;;9.90;99.90;;;;;;5068806;28;20266;-69
2021/05/26 07:07:00;;;;;;;2.67;1.80;;;10.00;99.90;;;;;;5069421;28;20212;-70
2021/05/26 07:09:26;;;;;;;2.13;1.58;;;10.00;99.90;;;;;;5068734;28;20204;-69
2021/05/26 07:11:52;;;;;;;4.93;2.00;;;10.00;99.90;;;;;;5068792;28;20201;-70
2021/05/26 07:14:19;;;;;;;3.85;1.70;;;10.00;99.90;;;;;;5068802;28;20228;-69
2021/05/26 07:16:45;;;;;;;4.65;2.08;;;10.10;99.90;;;;;;5069415;28;20201;-69
2021/05/26 07:19:12;;;;;;;3.65;2.05;;;10.10;99.90;;;;;;5077723;28;20200;-69
2021/05/26 07:21:40;;;;;;;5.22;1.90;;;10.20;99.90;;;;;;5068708;28;20200;-70
2021/05/26 07:24:07;;;;;;;2.47;1.70;;;10.10;99.90;;;;;;5069005;28;20247;-70
2021/05/26 07:26:33;;;;;;;5.30;2.80;;;10.10;99.90;;;;;;5069214;28;20212;-70
2021/05/26 07:29:00;;;;;;;5.20;2.25;;;10.10;99.90;;;;;;5068817;28;20263;-70
2021/05/26 07:31:26;;;;;;;4.55;2.53;;;10.10;99.90;;;;;;5067808;28;20207;-69
2021/05/26 07:33:53;;;;;;;3.55;2.05;;;10.10;99.90;;;;;;5068964;28;20201;-69
2021/05/26 07:36:19;;;;;;;3.90;2.17;;;10.10;99.90;;;;;;5068675;28;20574;-69
2021/05/26 07:38:47;;;;;;;3.17;2.05;;;10.10;99.90;;;;;;5069048;28;20688;-70
2021/05/26 07:41:13;;;;;;;4.75;2.10;;;10.10;99.90;;;;;;5068672;28;20271;-70
2021/05/26 07:43:39;;;;;;;4.07;1.63;;;10.10;99.90;;;;;;5072935;28;20216;-70
2021/05/26 07:46:05;;;;;;;4.28;1.95;;;10.20;99.90;;;;;;5072499;28;20254;-71
2021/05/26 07:48:32;;;;;;;3.83;2.00;;;10.20;99.90;;;;;;5072676;28;20211;-71
2021/05/26 07:51:00;;;;;;;4.13;1.98;;;10.20;99.90;;;;;;5072221;28;20205;-71
2021/05/26 07:53:26;;;;;;;5.70;2.35;;;10.20;99.90;;;;;;5072713;28;20197;-71
2021/05/26 07:55:53;;;;;;;4.30;1.83;;;10.30;99.90;;;;;;5071989;28;20220;-71
2021/05/26 07:58:19;;;;;;;5.93;2.30;;;10.30;99.90;;;;;;5072055;28;20208;-71
2021/05/26 08:00:46;;;;;;;3.50;2.53;;;10.30;99.90;;;;;;5071420;28;20229;-71
2021/05/26 08:03:12;;;;;;;3.08;2.05;;;10.30;99.90;;;;;;5072929;28;20223;-72
2021/05/26 08:05:38;;;;;;;3.28;1.90;;;10.30;99.90;;;;;;5072031;28;20236;-71
2021/05/26 08:08:05;;;;;;;3.92;2.20;;;10.40;99.90;;;;;;5070252;28;20192;-71
2021/05/26 08:10:31;;;;;;;3.58;2.60;;;10.40;99.90;;;;;;5058419;28;20541;-71
2021/05/26 08:12:58;;;;;;;2.60;2.10;;;10.40;99.90;;;;;;5072199;28;20583;-72
2021/05/26 08:15:24;;;;;;;4.28;2.10;;;10.40;99.90;;;;;;5071610;28;20249;-71
2021/05/26 08:17:51;;;;;;;3.35;1.90;;;10.40;99.90;;;;;;5072349;28;20671;-71
2021/05/26 08:20:17;;;;;;;2.33;1.80;;;10.40;99.90;;;;;;5071404;28;20204;-71
2021/05/26 08:22:43;;;;;;;7.75;2.03;;;10.40;99.90;;;;;;5071982;28;20216;-70
2021/05/26 08:25:10;;;;;;;3.50;2.40;;;10.40;99.90;;;;;;5072094;28;20228;-71
2021/05/26 08:27:37;;;;;;;2.20;1.85;;;10.50;99.90;;;;;;5072215;28;20207;-71
2021/05/26 08:30:06;;;;;;;4.97;2.20;;;10.50;99.90;;;;;;5071341;28;20733;-71
2021/05/26 08:32:32;;;;;;;4.50;2.22;;;10.40;99.90;;;;;;5072138;28;20201;-71
2021/05/26 08:34:58;;;;;;;6.82;3.00;;;10.50;99.90;;;;;;5072326;28;20228;-71
2021/05/26 08:37:24;;;;;;;4.40;2.05;;;10.40;99.90;;;;;;5072159;28;20200;-70
2021/05/26 08:39:51;;;;;;;7.32;2.65;;;10.40;99.90;;;;;;5071032;28;20200;-70
2021/05/26 08:42:18;;;;;;;4.15;2.40;;;10.30;99.90;;;;;;5071783;28;20227;-70
2021/05/26 08:44:44;;;;;;;2.95;1.90;;;10.20;99.90;;;;;;5072107;28;20307;-71
2021/05/26 08:47:16;;;;;;;3.38;1.73;;;10.20;99.90;;;;;;5072182;28;20201;-71
2021/05/26 08:49:44;;;;;;;4.03;1.90;;;10.10;99.90;;;;;;5071202;28;20212;-71
2021/05/26 08:52:10;;;;;;;5.18;2.15;;;10.20;99.90;;;;;;5071385;28;20201;-71
2021/05/26 08:54:38;;;;;;;7.18;2.75;;;10.20;99.90;;;;;;5071891;28;20598;-70
2021/05/26 08:57:05;;;;;;;4.18;2.90;;;10.20;99.90;;;;;;5071663;28;20200;-71
2021/05/26 08:59:31;;;;;;;4.57;2.10;;;10.10;99.90;;;;;;5071369;28;20675;-71
2021/05/26 09:01:58;;;;;;;2.85;1.67;;;10.10;99.90;;;;;;5071257;28;20277;-71
2021/05/26 09:04:30;;;;;;;4.47;2.53;;;10.10;99.90;;;;;;5070557;28;20228;-70
2021/05/26 09:07:11;;;;;;;2.58;2.38;;;10.10;99.90;;;;;;5072343;28;20200;-71
2021/05/26 09:09:55;;;;;;;5.03;2.30;;;10.00;99.90;;;;;;5070227;28;20204;-71
2021/05/26 09:12:27;;;;;;;3.47;2.45;;;10.10;99.90;;;;;;5071844;28;20258;-71
2021/05/26 09:14:54;;;;;;;4.68;2.45;;;10.10;99.90;;;;;;5071369;28;20224;-71
2021/05/26 09:17:20;;;;;;;2.72;1.85;;;10.10;99.90;;;;;;5072152;28;20201;-70
2021/05/26 09:19:47;;;;;;;3.85;2.08;;;10.10;99.90;;;;;;5072527;28;20200;-71
2021/05/26 09:22:14;;;;;;;7.18;2.03;;;10.20;99.90;;;;;;5072310;28;20881;-71
2021/05/26 09:24:41;;;;;;;4.00;2.17;;;10.30;99.90;;;;;;5072118;28;20220;-71
2021/05/26 09:27:10;;;;;;;3.65;2.00;;;10.40;99.90;;;;;;5072233;28;20211;-70
2021/05/26 09:29:37;;;;;;;4.03;2.95;;;10.40;99.90;;;;;;5070965;28;20208;-71
2021/05/26 09:32:20;;;;;;;3.47;1.95;;;10.40;99.90;;;;;;5072308;28;20216;-70
2021/05/26 09:34:49;;;;;;;3.83;2.25;;;10.40;99.90;;;;;;5072299;28;20224;-70
2021/05/26 09:37:17;;;;;;;3.08;1.90;;;10.30;99.90;;;;;;5071883;28;20223;-71
2021/05/26 09:39:49;;;;;;;3.42;2.40;;;10.30;99.90;;;;;;5072825;28;20211;-71
2021/05/26 09:42:23;;;;;;;2.38;1.60;;;10.30;99.90;;;;;;5091825;28;20199;-70
2021/05/26 09:45:10;;;;;;;4.63;1.45;;;10.40;99.90;;;;;;5092387;28;20224;-71
2021/05/26 09:47:37;;;;;;;2.58;1.35;;;10.40;99.90;;;;;;5091733;28;20204;-70
2021/05/26 09:50:33;;;;;;;4.28;1.90;;;10.40;99.90;;;;;;5091727;28;20690;-71
2021/05/26 09:53:02;;;;;;;3.47;1.55;;;10.50;99.90;;;;;;5092083;28;20291;-71
2021/05/26 09:55:30;;;;;;;3.58;1.55;;;10.50;99.90;;;;;;5086793;28;20225;-70
2021/05/26 09:57:58;;;;;;;3.15;1.08;;;10.50;99.90;;;;;;5071159;28;20337;-70
2021/05/26 10:00:25;;;;;;;1.83;1.15;;;10.40;99.90;;;;;;5070703;28;20574;-70
2021/05/26 10:02:51;;;;;;;1.52;1.30;;;10.40;99.90;;;;;;5071426;28;20223;-70
2021/05/26 10:05:19;;;;;;;2.15;1.48;;;10.50;99.90;;;;;;5069656;28;20259;-71
2021/05/26 10:07:50;;;;;;;1.70;1.25;;;10.60;99.90;;;;;;5070835;28;20204;-70
2021/05/26 10:10:18;;;;;;;1.52;1.38;;;10.70;99.90;;;;;;5070833;28;20197;-70
2021/05/26 10:12:50;;;;;;;2.80;1.33;;;10.80;99.90;;;;;;5071077;28;20204;-70
2021/05/26 10:15:18;;;;;;;5.68;1.85;;;10.80;99.90;;;;;;5070880;28;20220;-70
2021/05/26 10:17:50;;;;;;;1.38;1.27;;;10.80;99.90;;;;;;5070574;28;20200;-70
2021/05/26 10:20:18;;;;;;;1.83;1.30;;;10.80;99.90;;;;;;5070835;28;20200;-70
2021/05/26 10:22:47;;;;;;;2.17;1.45;;;10.90;99.90;;;;;;5071310;28;20228;-71
2021/05/26 10:25:15;;;;;;;2.58;1.40;;;11.00;99.90;;;;;;5071068;28;20727;-71
2021/05/26 10:27:47;;;;;;;1.88;1.20;;;11.00;99.90;;;;;;5070945;28;20222;-71
2021/05/26 10:30:14;;;;;;;1.65;1.25;;;11.10;99.90;;;;;;5071934;28;20682;-70
2021/05/26 10:32:55;;;;;;;2.80;1.30;;;11.10;99.90;;;;;;5070622;28;20197;-70
2021/05/26 10:35:22;;;;;;;5.15;1.20;;;11.20;99.90;;;;;;5070545;28;20267;-70
2021/05/26 10:37:58;;;;;;;2.28;1.25;;;11.40;99.90;;;;;;5070274;28;20671;-71
2021/05/26 10:40:42;;;;;;;1.55;1.27;;;11.40;99.90;;;;;;5070631;28;20200;-71
2021/05/26 10:43:30;;;;;;;1.90;1.20;;;11.40;99.90;;;;;;5070556;28;20220;-70
2021/05/26 10:45:59;;;;;;;1.70;1.25;;;11.50;99.90;;;;;;5070716;28;20224;-71
2021/05/26 10:48:52;;;;;;;4.80;1.88;;;11.40;99.90;;;;;;5070142;28;20208;-70
2021/05/26 10:51:19;;;;;;;1.15;0.90;;;11.40;99.90;;;;;;5056052;28;20196;-71
2021/05/26 10:53:46;;;;;;;1.95;1.30;;;11.40;99.90;;;;;;5070672;28;20670;-71
2021/05/26 10:56:34;;;;;;;1.30;1.20;;;11.40;99.90;;;;;;5070056;28;20270;-71
2021/05/26 10:59:10;;;;;;;5.32;1.70;;;11.50;99.90;;;;;;5070279;28;20200;-70
2021/05/26 11:02:07;;;;;;;2.95;1.10;;;11.60;99.90;;;;;;5070285;28;20571;-70
2021/05/26 11:04:35;;;;;;;2.20;1.35;;;11.70;99.90;;;;;;5069594;28;20220;-71
2021/05/26 11:07:17;;;;;;;2.45;1.38;;;11.60;99.90;;;;;;5070646;28;20204;-71
2021/05/26 11:09:57;;;;;;;1.73;1.17;;;11.70;99.90;;;;;;5070047;28;20218;-71
2021/05/26 11:12:23;;;;;;;2.10;1.40;;;11.70;99.90;;;;;;5070406;28;20200;-70
2021/05/26 11:14:53;;;;;;;3.05;1.60;;;11.80;99.90;;;;;;5069960;28;20905;-70
2021/05/26 11:17:29;;;;;;;2.58;1.20;;;11.80;99.90;;;;;;5070044;28;20208;-70
2021/05/26 11:20:14;;;;;;;2.50;1.55;;;11.80;99.90;;;;;;5070317;28;20649;-70
2021/05/26 11:22:40;;;;;;;1.20;1.00;;;11.80;99.90;;;;;;5070334;28;20223;-70
2021/05/26 11:25:09;;;;;;;3.70;1.67;;;11.80;99.90;;;;;;5070408;28;20224;-69
2021/05/26 11:27:36;;;;;;;4.35;1.40;;;11.80;99.90;;;;;;5068972;28;20236;-72
2021/05/26 11:30:04;;;;;;;2.35;1.20;;;11.90;99.90;;;;;;5070314;28;20680;-72
2021/05/26 11:32:32;;;;;;;1.98;1.55;;;11.80;99.90;;;;;;5070094;28;20204;-72
2021/05/26 11:35:02;;;;;;;4.03;1.30;;;11.70;99.90;;;;;;5070161;28;20591;-72
2021/05/26 11:37:31;;;;;;;3.25;1.60;;;11.70;99.90;;;;;;5069996;28;20219;-71
2021/05/26 11:39:58;;;;;;;1.60;1.50;;;11.70;99.90;;;;;;5069718;28;20204;-71
2021/05/26 11:42:27;;;;;;;3.00;1.30;;;11.70;99.90;;;;;;5069653;28;20212;-71
2021/05/26 11:44:55;;;;;;;2.03;1.38;;;11.70;99.90;;;;;;5070208;28;20224;-72
2021/05/26 11:47:35;;;;;;;2.55;1.30;;;11.80;99.90;;;;;;5069658;28;20212;-71
2021/05/26 11:50:03;;;;;;;2.30;1.25;;;11.80;99.90;;;;;;5070036;28;20710;-72
2021/05/26 11:52:29;;;;;;;2.60;1.50;;;11.80;99.90;;;;;;5069440;28;20200;-71
2021/05/26 11:54:57;;;;;;;1.90;1.40;;;11.80;99.90;;;;;;5069406;28;20220;-72
2021/05/26 11:57:33;;;;;;;2.95;1.40;;;11.70;99.90;;;;;;5069688;28;20204;-71
2021/05/26 11:59:59;;;;;;;2.50;1.40;;;11.80;99.90;;;;;;5069810;28;20203;-71
2021/05/26 12:02:25;;;;;;;1.98;1.48;;;11.80;99.90;;;;;;5069328;28;20200;-71
2021/05/26 12:04:52;;;;;;;1.45;1.20;;;11.90;99.90;;;;;;5069462;28;20260;-71
2021/05/26 12:07:23;;;;;;;2.72;1.23;;;12.00;99.90;;;;;;5069472;28;20207;-71
2021/05/26 12:09:54;;;;;;;2.08;1.63;;;12.20;99.90;;;;;;5069655;28;20196;-72
2021/05/26 12:12:21;;;;;;;5.07;1.25;;;12.20;99.90;;;;;;5069610;28;20204;-71
2021/05/26 12:14:49;;;;;;;1.42;1.27;;;12.30;99.90;;;;;;5069708;28;20282;-71
2021/05/26 12:17:16;;;;;;;3.85;1.33;;;12.30;99.90;;;;;;5069572;28;20226;-71
2021/05/26 12:19:43;;;;;;;2.22;1.45;;;12.40;99.90;;;;;;5069492;28;20207;-71
2021/05/26 12:22:14;;;;;;;7.78;2.03;;;12.30;99.90;;;;;;5069750;28;20205;-71
2021/05/26 12:24:58;;;;;;;1.60;1.30;;;12.40;99.90;;;;;;5069659;28;20227;-71
2021/05/26 12:27:32;;;;;;;1.75;1.27;;;12.40;99.90;;;;;;5070236;28;20196;-71
2021/05/26 12:30:19;;;;;;;1.40;1.30;;;12.50;99.90;;;;;;5072962;28;20253;-72
2021/05/26 12:32:47;;;;;;;1.65;1.20;;;12.70;99.90;;;;;;5073405;28;20294;-72
2021/05/26 12:35:14;;;;;;;3.65;1.83;;;13.00;99.90;;;;;;5069600;28;20793;-72
2021/05/26 12:37:43;;;;;;;1.80;1.30;;;13.40;99.90;;;;;;5072225;28;20204;-72
2021/05/26 12:40:15;;;;;;;2.70;1.47;;;13.60;99.90;;;;;;5081736;28;20541;-71
2021/05/26 12:42:42;;;;;;;3.50;1.80;;;13.80;99.90;;;;;;5081351;28;20474;-72
2021/05/26 12:45:24;;;;;;;1.50;1.13;;;13.80;99.90;;;;;;5073176;28;20474;-72
2021/05/26 12:47:50;;;;;;;2.10;1.33;;;13.90;99.90;;;;;;5072804;28;20561;-73
2021/05/26 12:50:19;;;;;;;2.63;1.40;;;13.90;99.90;;;;;;5072977;28;20523;-72
2021/05/26 12:52:49;;;;;;;1.63;1.10;;;14.00;99.90;;;;;;5072758;28;20469;-71
2021/05/26 12:55:16;;;;;;;2.00;1.60;;;14.00;99.90;;;;;;5073296;28;21050;-71
2021/05/26 12:57:43;;;;;;;1.63;1.17;;;14.00;99.90;;;;;;5072186;28;20466;-70